Time;durP1;ratioP1;P1;durP2;ratioP2;P2;SDS_P1;SDS_P2;PMS_P1;PMS_P2;Temp;Humidity;BMP_temperature;BMP_pressure;BME280_temperature;BME280_humidity;BME280_pressure;Samples;Min_cycle;Max_cycle;Signal;HPM_P1;HPM_P2
2021/06/26 00:01:16;;;;;;;;;;;15.80;99.90;;;;;;5074730;28;20043;-76
2021/06/26 00:03:41;;;;;;;49.50;26.90;;;15.80;99.90;;;;;;5076482;28;19916;-78
2021/06/26 00:06:07;;;;;;;44.75;26.52;;;15.80;99.90;;;;;;5063498;28;20060;-78
2021/06/26 00:08:33;;;;;;;;;;;15.80;99.90;;;;;;5087688;28;20060;-76
2021/06/26 00:10:59;;;;;;;49.08;26.08;;;15.70;99.90;;;;;;5084693;28;19950;-76
2021/06/26 00:13:25;;;;;;;;;;;15.70;99.90;;;;;;5057969;28;20449;-77
2021/06/26 00:15:51;;;;;;;45.40;26.05;;;15.70;99.90;;;;;;5086963;28;19916;-76
2021/06/26 00:18:17;;;;;;;;;;;15.70;99.90;;;;;;5062573;28;20111;-77
2021/06/26 00:20:44;;;;;;;46.13;25.27;;;15.70;99.90;;;;;;5093614;28;19916;-75
2021/06/26 00:23:11;;;;;;;47.97;27.15;;;15.70;99.90;;;;;;5056210;28;20048;-78
2021/06/26 00:25:37;;;;;;;52.13;29.30;;;15.70;99.90;;;;;;5085267;28;20381;-78
2021/06/26 00:28:03;;;;;;;;;;;15.70;99.90;;;;;;5094050;28;20043;-76
2021/06/26 00:30:29;;;;;;;47.78;26.77;;;15.70;99.90;;;;;;5094225;28;19916;-76
2021/06/26 00:32:55;;;;;;;53.70;29.70;;;15.70;99.90;;;;;;5091353;28;20131;-76
2021/06/26 00:35:21;;;;;;;49.35;29.75;;;15.70;99.90;;;;;;5076307;28;20338;-75
2021/06/26 00:37:46;;;;;;;;;;;15.70;99.90;;;;;;5094822;28;20387;-75
2021/06/26 00:40:13;;;;;;;50.08;27.95;;;15.70;99.90;;;;;;5092139;28;19927;-76
2021/06/26 00:42:41;;;;;;;50.72;29.45;;;15.70;99.90;;;;;;5075904;28;20043;-78
2021/06/26 00:45:09;;;;;;;50.15;27.95;;;15.70;99.90;;;;;;5093128;28;20043;-78
2021/06/26 00:47:35;;;;;;;51.47;29.08;;;15.70;99.90;;;;;;5093903;28;20039;-75
2021/06/26 00:50:12;;;;;;;52.47;28.63;;;15.80;99.90;;;;;;5092573;28;20148;-75
2021/06/26 00:52:38;;;;;;;50.17;27.63;;;15.80;99.90;;;;;;5093346;28;20048;-78
2021/06/26 00:55:05;;;;;;;;;;;15.80;99.90;;;;;;5074254;28;20465;-76
2021/06/26 00:57:33;;;;;;;58.20;28.50;;;15.80;99.90;;;;;;5093083;28;19916;-77
2021/06/26 01:00:06;;;;;;;47.78;28.15;;;15.80;99.90;;;;;;5072526;28;20058;-77
2021/06/26 01:02:32;;;;;;;51.92;28.83;;;15.80;99.90;;;;;;5080883;28;20485;-77
2021/06/26 01:04:57;;;;;;;;;;;15.90;99.90;;;;;;5093029;28;20114;-76
2021/06/26 01:07:23;;;;;;;49.47;27.35;;;15.90;99.90;;;;;;5093528;28;19920;-75
2021/06/26 01:09:49;;;;;;;;;;;15.90;99.90;;;;;;5079760;28;20098;-75
2021/06/26 01:12:15;;;;;;;48.15;28.25;;;15.90;99.90;;;;;;5092141;28;19916;-78
2021/06/26 01:14:41;;;;;;;;;;;15.90;99.90;;;;;;5093871;28;20036;-75
2021/06/26 01:17:08;;;;;;;52.92;28.75;;;15.90;99.90;;;;;;5107936;28;19920;-75
2021/06/26 01:19:35;;;;;;;51.20;27.70;;;16.00;99.90;;;;;;5093141;28;20135;-78
2021/06/26 01:22:07;;;;;;;49.25;29.75;;;16.10;99.90;;;;;;5092370;28;20040;-75
2021/06/26 01:24:35;;;;;;;51.42;28.95;;;16.10;99.90;;;;;;5093318;28;20427;-76
2021/06/26 01:27:01;;;;;;;;;;;16.10;99.90;;;;;;5092040;28;20031;-79
2021/06/26 01:29:29;;;;;;;54.70;30.20;;;16.10;99.90;;;;;;5093149;28;19951;-76
2021/06/26 01:31:55;;;;;;;51.90;29.20;;;16.10;99.90;;;;;;5092697;28;20059;-78
2021/06/26 01:34:21;;;;;;;58.80;32.33;;;16.10;99.90;;;;;;5090182;28;20040;-78
2021/06/26 01:36:47;;;;;;;;;;;16.10;99.90;;;;;;5093361;28;20050;-78
2021/06/26 01:39:13;;;;;;;56.40;32.67;;;16.10;99.90;;;;;;5060403;28;19916;-76
2021/06/26 01:41:39;;;;;;;;;;;16.20;99.90;;;;;;5092013;28;20036;-77
2021/06/26 01:44:05;;;;;;;57.88;32.58;;;16.20;99.90;;;;;;5092053;28;19938;-75
2021/06/26 01:46:30;;;;;;;;;;;16.20;99.90;;;;;;5093052;28;20040;-78
2021/06/26 01:49:10;;;;;;;62.88;33.83;;;16.20;99.90;;;;;;5074601;28;19976;-75
2021/06/26 01:51:37;;;;;;;59.47;33.38;;;16.20;99.90;;;;;;5091380;28;20079;-75
2021/06/26 01:54:05;;;;;;;64.07;34.65;;;16.20;99.90;;;;;;5073897;28;20044;-78
2021/06/26 01:56:31;;;;;;;60.80;33.78;;;16.20;99.90;;;;;;5091272;28;20040;-78
2021/06/26 01:58:57;;;;;;;64.65;34.40;;;16.30;99.90;;;;;;5089494;28;20377;-76
2021/06/26 02:01:23;;;;;;;60.80;32.95;;;16.20;99.90;;;;;;5084129;28;20063;-75
2021/06/26 02:03:49;;;;;;;56.67;32.53;;;16.30;99.90;;;;;;5092218;28;20042;-77
2021/06/26 02:06:15;;;;;;;;;;;16.30;99.90;;;;;;5091624;28;20059;-75
2021/06/26 02:08:40;;;;;;;59.80;33.20;;;16.30;99.90;;;;;;5067527;28;20254;-75
2021/06/26 02:11:06;;;;;;;;;;;16.30;99.90;;;;;;5084025;28;20109;-78
2021/06/26 02:13:32;;;;;;;61.40;34.78;;;16.30;99.90;;;;;;5092114;28;20432;-76
2021/06/26 02:15:58;;;;;;;;;;;16.20;99.90;;;;;;5074329;28;20039;-75
2021/06/26 02:18:23;;;;;;;56.35;32.65;;;16.20;99.90;;;;;;5091508;28;20073;-74
2021/06/26 02:20:49;;;;;;;;;;;16.20;99.90;;;;;;5073888;28;20121;-77
2021/06/26 02:23:15;;;;;;;61.88;35.00;;;16.30;99.90;;;;;;5053863;28;19916;-75
2021/06/26 02:25:42;;;;;;;62.20;34.65;;;16.20;99.90;;;;;;5062177;28;20052;-78
2021/06/26 02:28:08;;;;;;;58.60;33.47;;;16.20;99.90;;;;;;5090275;28;20032;-78
2021/06/26 02:30:34;;;;;;;;;;;16.30;99.90;;;;;;5092394;28;20119;-78
2021/06/26 02:32:59;;;;;;;58.13;31.30;;;16.20;99.90;;;;;;5038985;28;19920;-77
2021/06/26 02:35:26;;;;;;;53.83;32.03;;;16.40;99.90;;;;;;5069917;28;20072;-78
2021/06/26 02:37:52;;;;;;;55.63;31.63;;;16.20;99.90;;;;;;5090957;28;20075;-75
2021/06/26 02:40:18;;;;;;;;;;;16.30;99.90;;;;;;5059389;28;20330;-78
2021/06/26 02:42:44;;;;;;;54.67;30.63;;;16.30;99.90;;;;;;5090563;28;19916;-76
2021/06/26 02:45:10;;;;;;;;;;;16.20;99.90;;;;;;5043808;28;20037;-75
2021/06/26 02:47:36;;;;;;;58.83;33.03;;;16.20;99.90;;;;;;5091499;28;19915;-76
2021/06/26 02:50:03;;;;;;;53.85;31.55;;;16.30;99.90;;;;;;5090717;28;20044;-77
2021/06/26 02:52:29;;;;;;;54.17;31.73;;;16.30;99.90;;;;;;5090994;28;20481;-74
2021/06/26 02:54:55;;;;;;;63.10;34.75;;;16.30;99.90;;;;;;5091189;28;20113;-77
2021/06/26 02:57:21;;;;;;;;;;;16.30;99.90;;;;;;5052663;28;20032;-77
2021/06/26 02:59:48;;;;;;;57.80;33.65;;;16.30;99.90;;;;;;5056788;28;19974;-75
2021/06/26 03:02:14;;;;;;;66.68;37.22;;;16.30;99.90;;;;;;5077025;28;20045;-75
2021/06/26 03:04:40;;;;;;;62.58;36.67;;;16.30;99.90;;;;;;5060187;28;20032;-77
2021/06/26 03:07:06;;;;;;;74.93;37.85;;;16.30;99.90;;;;;;5066027;28;20043;-77
2021/06/26 03:09:36;;;;;;;69.40;36.58;;;16.30;99.90;;;;;;5071757;28;20043;-77
2021/06/26 03:12:02;;;;;;;59.70;33.90;;;16.70;99.90;;;;;;5072191;28;20040;-77
2021/06/26 03:14:28;;;;;;;66.95;37.13;;;16.30;99.90;;;;;;5090666;28;20092;-76
2021/06/26 03:16:53;;;;;;;66.40;37.58;;;16.30;99.90;;;;;;5091078;28;20107;-76
2021/06/26 03:19:19;;;;;;;;;;;16.30;99.90;;;;;;5091018;28;20144;-77
2021/06/26 03:21:45;;;;;;;64.05;34.67;;;16.30;99.90;;;;;;5078589;28;19915;-76
2021/06/26 03:24:11;;;;;;;;;;;16.30;99.90;;;;;;5091184;28;20040;-78
2021/06/26 03:26:44;;;;;;;61.70;35.50;;;16.30;99.90;;;;;;5089862;28;19924;-77
2021/06/26 03:29:10;;;;;;;71.05;38.28;;;16.30;99.90;;;;;;5090265;28;20119;-75
2021/06/26 03:31:36;;;;;;;;;;;16.30;99.90;;;;;;5065933;28;20037;-75
2021/06/26 03:34:03;;;;;;;65.53;35.35;;;16.30;99.90;;;;;;5085812;28;19943;-76
2021/06/26 03:36:29;;;;;;;68.20;35.78;;;16.30;99.90;;;;;;5064511;28;20047;-75
2021/06/26 03:38:55;;;;;;;62.40;34.60;;;16.30;99.90;;;;;;5053887;28;20461;-77
2021/06/26 03:41:25;;;;;;;61.72;34.88;;;16.40;99.90;;;;;;5090171;28;20036;-77
2021/06/26 03:43:52;;;;;;;60.63;33.85;;;16.30;99.90;;;;;;5091508;28;20036;-76
2021/06/26 03:46:17;;;;;;;65.00;36.58;;;16.40;99.90;;;;;;5072913;28;20036;-76
2021/06/26 03:48:43;;;;;;;60.30;33.25;;;16.40;99.90;;;;;;5042834;28;20060;-78
2021/06/26 03:51:09;;;;;;;;;;;16.40;99.90;;;;;;5063931;28;20055;-76
2021/06/26 03:53:36;;;;;;;62.78;35.65;;;16.40;99.90;;;;;;5086585;28;19973;-76
2021/06/26 03:56:02;;;;;;;71.10;37.15;;;16.40;99.90;;;;;;5063283;28;20040;-77
2021/06/26 03:58:28;;;;;;;;;;;16.50;99.90;;;;;;5086541;28;20093;-77
2021/06/26 04:00:56;;;;;;;61.67;33.07;;;16.40;99.90;;;;;;5106725;28;19916;-78
2021/06/26 04:03:22;;;;;;;63.03;35.03;;;16.50;99.90;;;;;;5090294;28;20066;-77
2021/06/26 04:05:49;;;;;;;64.72;34.65;;;16.50;99.90;;;;;;5090732;28;20039;-76
2021/06/26 04:08:14;;;;;;;65.82;33.58;;;16.50;99.90;;;;;;5056001;28;20470;-75
2021/06/26 04:10:58;;;;;;;61.28;32.70;;;16.50;99.90;;;;;;5082080;28;20059;-76
2021/06/26 04:13:24;;;;;;;60.10;33.17;;;16.60;99.90;;;;;;5090949;28;20132;-77
2021/06/26 04:15:49;;;;;;;;;;;16.60;99.90;;;;;;5047566;28;20059;-76
2021/06/26 04:18:15;;;;;;;58.72;33.05;;;16.60;99.90;;;;;;5092600;28;20281;-77
2021/06/26 04:20:42;;;;;;;52.95;32.15;;;16.70;99.90;;;;;;5076011;28;20043;-76
2021/06/26 04:23:07;;;;;;;;;;;16.70;99.90;;;;;;5057397;28;20036;-74
2021/06/26 04:25:33;;;;;;;55.35;30.77;;;16.80;99.90;;;;;;5078587;28;19938;-77
2021/06/26 04:28:09;;;;;;;55.45;30.65;;;16.80;99.90;;;;;;5093506;28;20067;-74
2021/06/26 04:30:35;;;;;;;54.85;30.45;;;16.90;99.90;;;;;;5095610;28;20040;-76
2021/06/26 04:33:01;;;;;;;43.25;26.67;;;16.90;99.90;;;;;;5092896;28;20043;-78
2021/06/26 04:35:27;;;;;;;43.17;26.15;;;17.00;99.90;;;;;;5093660;28;20089;-75
2021/06/26 04:37:53;;;;;;;;;;;17.00;99.90;;;;;;5076541;28;20081;-74
2021/06/26 04:40:19;;;;;;;40.67;25.88;;;17.10;99.90;;;;;;5092851;28;19920;-76
2021/06/26 04:42:45;;;;;;;;;;;17.10;99.90;;;;;;5063334;28;20430;-77
2021/06/26 04:45:12;;;;;;;35.38;22.33;;;17.20;99.90;;;;;;5062817;28;19916;-78
2021/06/26 04:47:42;;;;;;;42.97;23.73;;;17.20;99.90;;;;;;5093560;28;20032;-77
2021/06/26 04:50:10;;;;;;;40.25;23.70;;;17.20;99.90;;;;;;5093830;28;20438;-79
2021/06/26 04:52:36;;;;;;;33.35;21.95;;;17.20;99.90;;;;;;5080671;28;20048;-76
2021/06/26 04:55:03;;;;;;;32.33;19.48;;;17.30;99.90;;;;;;5074700;28;20100;-76
2021/06/26 04:57:29;;;;;;;30.52;20.08;;;17.30;99.90;;;;;;5080324;28;20924;-75
2021/06/26 04:59:55;;;;;;;34.85;18.48;;;17.40;99.90;;;;;;5082923;28;20036;-79
2021/06/26 05:02:21;;;;;;;;;;;17.50;99.90;;;;;;5079499;28;20440;-75
2021/06/26 05:04:47;;;;;;;31.77;18.25;;;17.50;99.90;;;;;;5079061;28;19924;-76
2021/06/26 05:07:13;;;;;;;;;;;17.60;99.90;;;;;;5054992;28;20047;-77
2021/06/26 05:09:38;;;;;;;31.00;19.92;;;17.80;99.90;;;;;;5073192;28;19916;-78
2021/06/26 05:12:05;;;;;;;;;;;18.00;99.90;;;;;;5050778;28;20493;-74
2021/06/26 05:14:30;;;;;;;35.30;21.33;;;18.20;99.90;;;;;;5066883;28;19924;-77
2021/06/26 05:16:56;;;;;;;;;;;18.40;99.90;;;;;;5093594;28;20039;-78
2021/06/26 05:19:22;;;;;;;31.02;20.38;;;18.60;99.90;;;;;;5092901;28;19920;-76
2021/06/26 05:21:48;;;;;;;;;;;18.70;99.90;;;;;;5093656;28;20043;-76
2021/06/26 05:24:13;;;;;;;36.20;23.10;;;18.80;99.90;;;;;;5092165;28;20002;-78
2021/06/26 05:26:39;;;;;;;;;;;18.90;99.90;;;;;;5084549;28;20032;-74
2021/06/26 05:29:05;;;;;;;42.03;26.90;;;19.10;99.90;;;;;;5065031;28;19920;-79
2021/06/26 05:31:31;;;;;;;;;;;19.20;99.90;;;;;;5074873;28;20122;-77
2021/06/26 05:33:57;;;;;;;40.97;26.00;;;19.30;99.90;;;;;;5091694;28;19920;-75
2021/06/26 05:36:23;;;;;;;;;;;19.30;99.90;;;;;;5067838;28;20103;-77
2021/06/26 05:38:48;;;;;;;39.83;24.95;;;19.40;99.90;;;;;;5083298;28;19916;-75
2021/06/26 05:41:14;;;;;;;;;;;19.40;99.90;;;;;;5092753;28;20060;-77
2021/06/26 05:43:40;;;;;;;40.10;25.35;;;19.50;99.90;;;;;;5093921;28;19947;-77
2021/06/26 05:46:05;;;;;;;;;;;19.60;99.90;;;;;;5093698;28;20039;-78
2021/06/26 05:48:31;;;;;;;37.40;24.02;;;19.60;99.90;;;;;;5060997;28;20490;-78
2021/06/26 05:50:57;;;;;;;;;;;19.70;99.90;;;;;;5067838;28;20040;-77
2021/06/26 05:53:23;;;;;;;38.67;25.45;;;19.70;99.90;;;;;;5101172;28;19924;-76
2021/06/26 05:55:59;;;;;;;;;;;19.70;99.90;;;;;;5073561;28;20036;-77
2021/06/26 05:58:30;;;;;;;38.67;26.40;;;19.70;99.90;;;;;;5062577;28;19965;-75
2021/06/26 06:00:56;;;;;;;38.17;27.02;;;19.70;99.90;;;;;;5082539;28;20070;-76
2021/06/26 06:03:22;;;;;;;41.17;26.98;;;19.70;99.90;;;;;;5074562;28;20120;-76
2021/06/26 06:05:50;;;;;;;41.92;27.35;;;19.70;99.90;;;;;;5049261;28;20143;-75
2021/06/26 06:08:17;;;;;;;44.03;27.42;;;19.70;99.90;;;;;;5067312;28;20081;-77
2021/06/26 06:10:43;;;;;;;43.90;28.48;;;19.70;99.90;;;;;;5070326;28;20036;-75
2021/06/26 06:13:16;;;;;;;41.90;27.52;;;19.60;99.90;;;;;;5089303;28;20047;-76
2021/06/26 06:15:43;;;;;;;43.17;27.65;;;19.60;99.90;;;;;;5092540;28;20036;-77
2021/06/26 06:18:09;;;;;;;42.17;28.42;;;19.70;99.90;;;;;;5093071;28;20039;-76
2021/06/26 06:20:36;;;;;;;44.67;28.15;;;19.70;99.90;;;;;;5073728;28;20065;-76
2021/06/26 06:23:02;;;;;;;46.47;30.08;;;19.70;99.90;;;;;;5092707;28;20036;-75
2021/06/26 06:25:27;;;;;;;42.92;29.10;;;19.60;99.90;;;;;;5090564;28;20405;-76
2021/06/26 06:27:53;;;;;;;44.78;29.42;;;19.50;99.90;;;;;;5092307;28;20043;-77
2021/06/26 06:30:20;;;;;;;45.28;29.25;;;19.50;99.90;;;;;;5062678;28;20123;-77
2021/06/26 06:32:46;;;;;;;48.42;31.80;;;19.50;99.90;;;;;;5087279;28;20036;-75
2021/06/26 06:35:12;;;;;;;43.22;29.20;;;19.50;99.90;;;;;;5091554;28;20040;-76
2021/06/26 06:37:38;;;;;;;;;;;19.50;99.90;;;;;;5091003;28;20069;-76
2021/06/26 06:40:06;;;;;;;44.80;31.25;;;19.60;99.90;;;;;;5090689;28;19920;-76
2021/06/26 06:42:33;;;;;;;47.47;31.42;;;19.80;99.90;;;;;;5076671;28;20036;-75
2021/06/26 06:44:58;;;;;;;43.65;29.95;;;19.90;99.90;;;;;;5093701;28;20040;-76
2021/06/26 06:47:24;;;;;;;44.53;29.38;;;20.10;99.90;;;;;;5091233;28;20506;-77
2021/06/26 06:49:50;;;;;;;42.30;27.05;;;20.10;99.90;;;;;;5073650;28;20043;-77
2021/06/26 06:52:16;;;;;;;;;;;20.10;99.90;;;;;;5073026;28;20102;-77
2021/06/26 06:54:41;;;;;;;36.35;25.30;;;20.10;99.90;;;;;;5062421;28;20293;-77
2021/06/26 06:57:07;;;;;;;39.55;27.45;;;20.20;99.90;;;;;;5087327;28;20102;-75
2021/06/26 06:59:33;;;;;;;36.88;26.00;;;20.20;99.90;;;;;;5083726;28;20485;-77
2021/06/26 07:01:59;;;;;;;;;;;20.40;99.90;;;;;;5089399;28;20486;-75
2021/06/26 07:04:25;;;;;;;37.05;24.42;;;20.50;99.90;;;;;;5090525;28;19968;-76
2021/06/26 07:06:51;;;;;;;34.90;25.00;;;20.80;99.90;;;;;;5091163;28;20056;-75
2021/06/26 07:09:17;;;;;;;35.65;25.33;;;20.90;99.90;;;;;;5069356;28;20037;-77
2021/06/26 07:11:43;;;;;;;36.40;24.23;;;21.20;99.90;;;;;;5069876;28;20059;-75
2021/06/26 07:14:09;;;;;;;33.45;24.02;;;21.40;99.90;;;;;;5091377;28;20050;-77
2021/06/26 07:16:35;;;;;;;32.47;22.25;;;21.50;99.90;;;;;;5090512;28;20040;-77
2021/06/26 07:19:00;;;;;;;29.08;19.73;;;21.90;99.90;;;;;;5091353;28;20040;-76
2021/06/26 07:21:26;;;;;;;27.35;20.17;;;22.20;99.90;;;;;;5068267;28;20040;-75
2021/06/26 07:23:52;;;;;;;28.00;19.63;;;22.20;99.90;;;;;;5082054;28;20074;-77
2021/06/26 07:26:18;;;;;;;27.70;18.67;;;22.30;99.90;;;;;;5089609;28;20036;-76
2021/06/26 07:28:43;;;;;;;27.55;19.42;;;22.40;99.90;;;;;;5091443;28;20086;-77
2021/06/26 07:31:10;;;;;;;25.13;18.17;;;22.70;99.90;;;;;;5055743;28;20505;-77
2021/06/26 07:33:36;;;;;;;24.30;17.50;;;22.80;99.90;;;;;;5063666;28;20044;-76
2021/06/26 07:36:02;;;;;;;26.33;17.90;;;22.90;99.90;;;;;;5090390;28;20050;-76
2021/06/26 07:38:27;;;;;;;23.42;17.23;;;22.90;99.90;;;;;;5090599;28;20054;-76
2021/06/26 07:40:53;;;;;;;25.55;20.02;;;22.90;99.90;;;;;;5042082;28;20060;-77
2021/06/26 07:43:19;;;;;;;26.75;19.38;;;23.00;99.90;;;;;;5090884;28;20044;-77
2021/06/26 07:45:45;;;;;;;26.42;19.08;;;23.10;99.90;;;;;;5090789;28;20036;-75
2021/06/26 07:48:14;;;;;;;27.92;20.17;;;23.10;99.90;;;;;;5091007;28;20123;-77
2021/06/26 07:50:40;;;;;;;27.55;19.48;;;23.10;99.90;;;;;;5092795;28;20122;-78
2021/06/26 07:53:06;;;;;;;26.83;19.80;;;23.20;99.90;;;;;;5094347;28;20056;-77
2021/06/26 07:55:33;;;;;;;25.50;19.25;;;23.20;99.90;;;;;;5092861;28;20477;-76
2021/06/26 07:57:59;;;;;;;30.58;21.98;;;23.20;99.90;;;;;;5094691;28;20075;-76
2021/06/26 08:00:25;;;;;;;27.00;20.15;;;23.20;99.90;;;;;;5094473;28;20055;-75
2021/06/26 08:02:50;;;;;;;26.05;18.33;;;23.30;99.90;;;;;;5065259;28;20119;-75
2021/06/26 08:05:16;;;;;;;23.85;17.38;;;23.40;99.90;;;;;;5091569;28;20040;-77
2021/06/26 08:07:42;;;;;;;22.45;16.40;;;23.50;99.90;;;;;;5094127;28;20097;-77
2021/06/26 08:10:09;;;;;;;23.35;17.80;;;23.60;99.90;;;;;;5057384;28;20062;-75
2021/06/26 08:12:34;;;;;;;22.55;16.73;;;23.60;99.90;;;;;;5086055;28;20032;-75
2021/06/26 08:15:01;;;;;;;27.25;18.70;;;23.60;99.90;;;;;;5094751;28;20081;-77
2021/06/26 08:17:27;;;;;;;23.92;16.90;;;23.60;99.90;;;;;;5043021;28;20036;-76
2021/06/26 08:19:53;;;;;;;22.67;17.00;;;23.60;99.90;;;;;;5093766;28;20038;-77
2021/06/26 08:22:19;;;;;;;22.45;16.77;;;23.50;99.90;;;;;;5076123;28;20043;-76
2021/06/26 08:24:44;;;;;;;24.77;18.63;;;23.60;99.90;;;;;;5057487;28;20070;-76
2021/06/26 08:27:10;;;;;;;24.38;18.92;;;23.70;99.90;;;;;;5064651;28;20149;-77
2021/06/26 08:29:36;;;;;;;27.58;18.73;;;23.80;99.90;;;;;;5093391;28;20432;-76
2021/06/26 08:32:03;;;;;;;25.75;18.42;;;23.90;99.90;;;;;;5064623;28;20062;-76
2021/06/26 08:34:29;;;;;;;28.02;19.27;;;24.10;99.90;;;;;;5038364;28;20043;-77
2021/06/26 08:36:55;;;;;;;25.70;18.77;;;24.20;99.90;;;;;;5084987;28;20470;-75
2021/06/26 08:39:21;;;;;;;24.05;17.77;;;24.30;99.90;;;;;;5093704;28;20044;-77
2021/06/26 08:41:49;;;;;;;26.25;19.27;;;24.30;99.90;;;;;;5092711;28;20071;-77
2021/06/26 08:44:17;;;;;;;23.50;17.75;;;24.30;99.90;;;;;;5093598;28;20048;-76
2021/06/26 08:46:51;;;;;;;24.33;17.80;;;24.40;99.90;;;;;;5093084;28;20362;-77
2021/06/26 08:49:18;;;;;;;25.02;19.17;;;24.40;99.90;;;;;;5058984;28;20055;-76
2021/06/26 08:51:45;;;;;;;25.02;19.05;;;24.60;99.90;;;;;;5071239;28;20175;-75
2021/06/26 08:54:13;;;;;;;26.27;19.48;;;24.80;99.90;;;;;;5062150;28;20112;-77
2021/06/26 08:56:41;;;;;;;27.80;21.20;;;25.00;99.90;;;;;;5092203;28;20036;-77
2021/06/26 08:59:07;;;;;;;25.08;18.77;;;25.00;99.40;;;;;;5098220;28;20039;-77
2021/06/26 09:01:37;;;;;;;23.15;17.83;;;24.90;99.20;;;;;;5092774;28;20401;-77
2021/06/26 09:04:04;;;;;;;23.40;18.50;;;24.70;99.90;;;;;;5093283;28;20044;-77
2021/06/26 09:06:33;;;;;;;25.88;19.42;;;24.70;99.90;;;;;;5092283;28;20119;-78
2021/06/26 09:08:59;;;;;;;22.73;17.50;;;24.90;99.60;;;;;;5084250;28;20036;-75
2021/06/26 09:11:25;;;;;;;22.48;18.05;;;24.80;99.40;;;;;;5087689;28;20036;-76
2021/06/26 09:13:51;;;;;;;23.33;17.48;;;24.70;99.60;;;;;;5066610;28;20116;-77
2021/06/26 09:16:17;;;;;;;23.70;16.40;;;24.70;99.90;;;;;;5088578;28;20115;-77
2021/06/26 09:18:48;;;;;;;23.27;16.65;;;24.90;99.90;;;;;;5092482;28;20111;-76
2021/06/26 09:21:34;;;;;;;22.05;16.27;;;25.20;99.90;;;;;;5092808;28;20040;-77
2021/06/26 09:24:08;;;;;;;21.02;16.88;;;25.30;98.70;;;;;;5075388;28;20040;-76
2021/06/26 09:26:36;;;;;;;21.95;16.33;;;25.40;98.20;;;;;;5082796;28;20036;-76
2021/06/26 09:29:17;;;;;;;21.02;15.90;;;25.30;99.50;;;;;;5092783;28;20028;-77
2021/06/26 09:32:05;;;;;;;20.77;15.55;;;25.40;99.70;;;;;;5092240;28;20036;-76
2021/06/26 09:34:40;;;;;;;20.00;14.45;;;25.70;99.80;;;;;;5090949;28;20370;-77
2021/06/26 09:37:09;;;;;;;19.83;13.85;;;25.90;98.80;;;;;;5092193;28;20047;-75
2021/06/26 09:39:37;;;;;;;16.17;12.70;;;25.90;97.20;;;;;;5091655;28;20040;-76
2021/06/26 09:42:27;;;;;;;19.98;14.38;;;25.90;96.50;;;;;;5091437;28;20040;-77
2021/06/26 09:45:08;;;;;;;16.83;12.15;;;25.80;93.80;;;;;;5092682;28;20036;-76
2021/06/26 09:47:38;;;;;;;16.13;12.13;;;25.80;97.00;;;;;;5091922;28;20032;-75
2021/06/26 09:50:09;;;;;;;15.07;11.77;;;25.80;95.80;;;;;;5091590;28;20040;-77
2021/06/26 09:52:39;;;;;;;15.02;10.55;;;26.00;96.00;;;;;;5067062;28;20488;-77
2021/06/26 09:55:27;;;;;;;14.32;11.73;;;26.20;95.90;;;;;;5037433;28;20051;-76
2021/06/26 09:57:55;;;;;;;14.75;11.45;;;26.40;94.20;;;;;;5092189;28;20427;-76
2021/06/26 10:00:26;;;;;;;14.93;10.98;;;26.40;94.90;;;;;;5092382;28;20397;-76
2021/06/26 10:02:53;;;;;;;15.27;12.23;;;26.40;94.40;;;;;;5092419;28;20051;-76
2021/06/26 10:05:19;;;;;;;14.68;11.93;;;26.20;94.60;;;;;;5091907;28;20036;-76
2021/06/26 10:07:48;;;;;;;14.13;11.38;;;26.10;93.50;;;;;;5091557;28;20042;-76
2021/06/26 10:10:19;;;;;;;14.95;11.05;;;26.10;92.10;;;;;;5077151;28;20040;-76
2021/06/26 10:12:45;;;;;;;13.70;9.98;;;25.90;93.50;;;;;;5091377;28;20091;-78
2021/06/26 10:15:13;;;;;;;14.75;10.75;;;25.70;93.70;;;;;;5059949;28;20059;-77
2021/06/26 10:17:39;;;;;;;14.32;10.38;;;25.70;92.80;;;;;;5091254;28;20115;-76
2021/06/26 10:20:11;;;;;;;16.10;11.07;;;25.40;92.50;;;;;;5091288;28;20115;-75
2021/06/26 10:22:39;;;;;;;17.55;14.15;;;25.30;93.00;;;;;;5092132;28;20035;-76
2021/06/26 10:25:06;;;;;;;23.33;16.60;;;25.10;94.70;;;;;;5091007;28;20774;-75
2021/06/26 10:27:33;;;;;;;19.80;15.20;;;24.90;95.40;;;;;;5091489;28;20047;-76
2021/06/26 10:30:13;;;;;;;20.40;16.17;;;24.70;97.40;;;;;;5091746;28;20477;-76
2021/06/26 10:32:53;;;;;;;23.30;17.25;;;24.60;98.10;;;;;;5091644;28;20098;-77
2021/06/26 10:35:20;;;;;;;23.58;15.05;;;24.40;98.50;;;;;;5092267;28;20039;-76
2021/06/26 10:37:46;;;;;;;21.70;16.38;;;24.30;99.00;;;;;;5054810;28;20047;-76
2021/06/26 10:40:12;;;;;;;22.80;16.45;;;24.20;99.10;;;;;;5082051;28;20089;-77
2021/06/26 10:42:39;;;;;;;21.98;16.23;;;24.20;99.70;;;;;;5054952;28;20040;-77
2021/06/26 10:45:08;;;;;;;24.38;17.80;;;24.10;99.90;;;;;;5084101;28;20118;-75
2021/06/26 10:47:37;;;;;;;20.27;14.98;;;24.20;99.90;;;;;;5091349;28;20119;-78
2021/06/26 10:50:13;;;;;;;21.45;15.27;;;24.10;99.60;;;;;;5091210;28;20074;-77
2021/06/26 10:52:52;;;;;;;23.33;16.20;;;24.10;99.70;;;;;;5059886;28;20093;-77
2021/06/26 10:55:29;;;;;;;22.13;16.05;;;24.20;99.90;;;;;;5090388;28;20040;-74
2021/06/26 10:57:56;;;;;;;22.08;16.45;;;24.10;99.90;;;;;;5091540;28;20055;-76
2021/06/26 11:00:39;;;;;;;22.33;16.90;;;24.10;99.90;;;;;;5073081;28;20043;-76
2021/06/26 11:03:18;;;;;;;22.38;16.40;;;24.00;99.90;;;;;;5073268;28;20040;-77
2021/06/26 11:05:44;;;;;;;23.45;16.35;;;24.10;99.90;;;;;;5066133;28;20044;-76
2021/06/26 11:08:14;;;;;;;21.85;16.58;;;24.00;99.90;;;;;;5083094;28;20040;-76
2021/06/26 11:10:57;;;;;;;22.98;16.83;;;24.00;99.90;;;;;;5078545;28;20115;-75
2021/06/26 11:13:27;;;;;;;27.52;17.95;;;23.90;99.90;;;;;;5072890;28;20131;-75
2021/06/26 11:16:07;;;;;;;28.90;19.55;;;23.80;99.90;;;;;;5092488;28;20044;-75
2021/06/26 11:18:33;;;;;;;25.60;18.38;;;23.70;99.90;;;;;;5074544;28;20032;-76
2021/06/26 11:21:01;;;;;;;22.60;16.65;;;23.60;99.90;;;;;;5078260;28;20044;-76
2021/06/26 11:23:27;;;;;;;27.17;18.40;;;23.70;99.90;;;;;;5090736;28;20056;-77
2021/06/26 11:26:00;;;;;;;26.70;18.23;;;23.60;99.90;;;;;;5092244;28;20032;-75
2021/06/26 11:28:26;;;;;;;24.40;19.08;;;23.60;99.90;;;;;;5095199;28;20051;-76
2021/06/26 11:31:01;;;;;;;24.60;17.73;;;23.80;99.90;;;;;;5094509;28;20036;-76
2021/06/26 11:33:33;;;;;;;24.48;17.85;;;23.80;99.90;;;;;;5077212;28;20052;-75
2021/06/26 11:36:00;;;;;;;28.13;19.05;;;24.00;99.90;;;;;;5094493;28;20537;-77
2021/06/26 11:38:26;;;;;;;25.50;18.42;;;24.30;99.90;;;;;;5066143;28;20037;-77
2021/06/26 11:41:06;;;;;;;28.90;20.30;;;24.50;99.90;;;;;;5071887;28;20401;-75
2021/06/26 11:43:32;;;;;;;26.48;20.30;;;24.60;99.90;;;;;;5094941;28;20431;-76
2021/06/26 11:46:01;;;;;;;26.35;20.80;;;24.80;99.90;;;;;;5076583;28;20474;-76
2021/06/26 11:48:27;;;;;;;25.65;19.27;;;24.80;99.90;;;;;;5094982;28;20051;-77
2021/06/26 11:51:02;;;;;;;28.60;20.15;;;25.00;99.90;;;;;;5075584;28;20093;-76
2021/06/26 11:53:29;;;;;;;29.10;20.70;;;25.10;99.90;;;;;;5075899;28;20048;-76
2021/06/26 11:56:04;;;;;;;30.60;21.13;;;25.30;99.90;;;;;;5067100;28;20041;-76
2021/06/26 11:58:40;;;;;;;28.90;21.30;;;25.30;99.90;;;;;;5089800;28;20044;-77
2021/06/26 12:01:08;;;;;;;32.00;23.50;;;25.40;99.90;;;;;;5085023;28;20474;-75
2021/06/26 12:03:35;;;;;;;33.08;24.58;;;25.50;99.90;;;;;;5094293;28;20060;-77
2021/06/26 12:06:08;;;;;;;29.20;21.95;;;25.50;99.90;;;;;;5094080;28;20393;-77
2021/06/26 12:08:47;;;;;;;31.55;22.73;;;25.40;99.90;;;;;;5094374;28;20045;-77
2021/06/26 12:11:26;;;;;;;33.13;24.15;;;25.60;99.90;;;;;;5093156;28;20048;-77
2021/06/26 12:13:54;;;;;;;31.13;23.83;;;25.80;99.90;;;;;;5093661;28;20040;-76
2021/06/26 12:16:25;;;;;;;31.55;24.52;;;25.90;99.90;;;;;;5094053;28;20119;-77
2021/06/26 12:18:56;;;;;;;33.00;24.42;;;26.30;99.90;;;;;;5093663;28;20040;-77
2021/06/26 12:21:39;;;;;;;34.22;24.80;;;26.50;99.20;;;;;;5094270;28;20036;-76
2021/06/26 12:24:06;;;;;;;31.48;25.63;;;26.10;98.70;;;;;;5076396;28;20047;-76
2021/06/26 12:26:32;;;;;;;32.55;24.60;;;26.00;98.60;;;;;;5093254;28;20169;-75
2021/06/26 12:28:57;;;;;;;32.80;23.55;;;25.90;98.90;;;;;;5094220;28;20092;-76
2021/06/26 12:31:25;;;;;;;32.60;23.90;;;25.70;99.10;;;;;;5094285;28;20032;-77
2021/06/26 12:34:06;;;;;;;35.15;24.63;;;25.60;99.60;;;;;;5091435;28;20048;-76
2021/06/26 12:36:33;;;;;;;32.30;23.83;;;25.70;99.40;;;;;;5079836;28;20422;-76
2021/06/26 12:38:59;;;;;;;31.33;24.00;;;25.60;99.60;;;;;;5090850;28;20043;-76
2021/06/26 12:41:27;;;;;;;32.10;25.00;;;25.60;99.90;;;;;;5088166;28;20033;-77
2021/06/26 12:43:54;;;;;;;32.00;23.38;;;25.70;99.90;;;;;;5089718;28;20469;-76